createdAt,value
2018-10-03T00:00:57.739Z,996.28
2018-10-03T00:01:57.781Z,996.27
2018-10-03T00:02:57.821Z,996.30
2018-10-03T00:03:57.862Z,996.25
2018-10-03T00:04:57.900Z,996.25
2018-10-03T00:05:57.942Z,996.22
2018-10-03T00:06:57.983Z,996.23
2018-10-03T00:07:58.023Z,996.29
2018-10-03T00:08:58.064Z,996.29
2018-10-03T00:09:58.104Z,996.29
2018-10-03T00:10:58.164Z,996.25
2018-10-03T00:11:58.185Z,996.24
2018-10-03T00:12:58.225Z,996.21
2018-10-03T00:13:58.266Z,996.23
2018-10-03T00:14:58.308Z,996.23
2018-10-03T00:15:58.350Z,996.23
2018-10-03T00:16:58.385Z,996.24
2018-10-03T00:17:58.430Z,996.24
2018-10-03T00:18:58.468Z,996.25
2018-10-03T00:19:58.509Z,996.26
2018-10-03T00:20:58.547Z,996.29
2018-10-03T00:21:58.592Z,996.30
2018-10-03T00:22:58.631Z,996.34
2018-10-03T00:23:58.672Z,996.35
2018-10-03T00:24:58.709Z,996.30
2018-10-03T00:25:58.757Z,996.29
2018-10-03T00:26:58.789Z,996.33
2018-10-03T00:27:58.834Z,996.31
2018-10-03T00:28:59.025Z,996.31
2018-10-03T00:29:58.913Z,996.33
2018-10-03T00:30:59.001Z,996.29
2018-10-03T00:31:58.992Z,996.27
2018-10-03T00:32:59.031Z,996.19
2018-10-03T00:33:59.073Z,996.20
2018-10-03T00:34:59.112Z,996.24
2018-10-03T00:35:59.156Z,996.24
2018-10-03T00:36:59.197Z,996.28
2018-10-03T00:37:59.315Z,996.28
2018-10-03T00:38:59.293Z,996.30
2018-10-03T00:39:59.318Z,996.30
2018-10-03T00:40:59.356Z,996.24
2018-10-03T00:41:59.401Z,996.27
2018-10-03T00:42:59.462Z,996.31
2018-10-03T00:43:59.476Z,996.29
2018-10-03T00:44:59.521Z,996.29
2018-10-03T00:45:59.564Z,996.31
2018-10-03T00:46:59.604Z,996.29
2018-10-03T00:47:59.637Z,996.31
2018-10-03T00:48:59.678Z,996.30
2018-10-03T00:49:59.750Z,996.28
2018-10-03T00:50:59.761Z,996.33
2018-10-03T00:51:59.799Z,996.36
2018-10-03T00:52:59.839Z,996.36
2018-10-03T00:53:59.883Z,996.41
2018-10-03T00:54:59.919Z,996.45
2018-10-03T00:55:59.966Z,996.41
2018-10-03T00:56:59.999Z,996.44
2018-10-03T00:58:00.068Z,996.40
2018-10-03T00:59:00.081Z,996.47
2018-10-03T01:00:00.120Z,996.49
2018-10-03T01:01:00.160Z,996.51
2018-10-03T01:02:00.200Z,996.48
2018-10-03T01:03:00.243Z,996.49
2018-10-03T01:04:00.295Z,996.51
2018-10-03T01:05:00.325Z,996.51
2018-10-03T01:06:00.364Z,996.52
2018-10-03T01:07:00.405Z,996.49
2018-10-03T01:08:00.445Z,996.46
2018-10-03T01:09:00.507Z,996.46
2018-10-03T01:10:00.524Z,996.46
2018-10-03T01:11:00.567Z,996.48
2018-10-03T01:12:00.610Z,996.42
2018-10-03T01:13:00.645Z,996.44
2018-10-03T01:14:00.687Z,996.43
2018-10-03T01:15:00.728Z,996.46
2018-10-03T01:16:00.768Z,996.43
2018-10-03T01:17:00.807Z,996.41
2018-10-03T01:18:00.851Z,996.42
2018-10-03T01:19:00.889Z,996.50
2018-10-03T01:20:00.941Z,996.50
2018-10-03T01:21:00.974Z,996.58
2018-10-03T01:22:01.010Z,996.61
2018-10-03T01:23:01.051Z,996.57
2018-10-03T01:24:01.091Z,996.56
2018-10-03T01:25:01.132Z,996.56
2018-10-03T01:26:01.181Z,996.52
2018-10-03T01:27:01.213Z,996.50
2018-10-03T01:28:01.258Z,996.55
2018-10-03T01:29:01.295Z,996.51
2018-10-03T01:30:01.334Z,996.53
2018-10-03T01:31:01.377Z,996.49
2018-10-03T01:32:01.417Z,996.55
2018-10-03T01:33:01.454Z,996.51
2018-10-03T01:34:01.502Z,996.48
2018-10-03T01:35:01.537Z,996.46
2018-10-03T01:36:01.581Z,996.40
2018-10-03T01:37:01.617Z,996.46
2018-10-03T01:38:01.666Z,996.48
2018-10-03T01:39:01.703Z,996.50
2018-10-03T01:40:01.785Z,996.49
2018-10-03T01:41:01.831Z,996.48
2018-10-03T01:42:01.821Z,996.49
2018-10-03T01:43:01.866Z,996.51
2018-10-03T01:44:01.901Z,996.53
2018-10-03T01:45:01.943Z,996.51
2018-10-03T01:46:01.990Z,996.52
2018-10-03T01:47:02.024Z,996.50
2018-10-03T01:48:02.062Z,996.50
2018-10-03T01:49:02.104Z,996.56
2018-10-03T01:50:02.145Z,996.60
2018-10-03T01:51:02.185Z,996.64
2018-10-03T01:52:02.227Z,996.66
2018-10-03T01:53:02.274Z,996.68
2018-10-03T01:54:02.306Z,996.72
2018-10-03T01:55:02.356Z,996.70
2018-10-03T01:56:02.389Z,996.68
2018-10-03T01:57:02.429Z,996.67
2018-10-03T01:58:02.468Z,996.67
2018-10-03T01:59:02.514Z,996.71
2018-10-03T02:00:02.601Z,996.68
2018-10-03T02:01:02.593Z,996.71
2018-10-03T02:02:02.633Z,996.69
2018-10-03T02:03:02.673Z,996.68
2018-10-03T02:04:02.723Z,996.64
2018-10-03T02:05:02.754Z,996.65
2018-10-03T02:06:02.797Z,996.67
2018-10-03T02:07:02.938Z,996.67
2018-10-03T02:08:02.877Z,996.65
2018-10-03T02:09:02.916Z,996.71
2018-10-03T02:10:02.956Z,996.76
2018-10-03T02:11:02.998Z,996.82
2018-10-03T02:12:03.053Z,996.82
2018-10-03T02:13:03.078Z,996.85
2018-10-03T02:14:03.133Z,996.83
2018-10-03T02:15:03.163Z,996.84
2018-10-03T02:16:03.205Z,996.85
2018-10-03T02:17:03.261Z,996.87
2018-10-03T02:18:03.282Z,996.93
2018-10-03T02:19:03.325Z,996.95
2018-10-03T02:20:03.380Z,996.95
2018-10-03T02:21:03.414Z,997.00
2018-10-03T02:22:03.446Z,996.97
2018-10-03T02:23:03.486Z,996.97
2018-10-03T02:24:03.657Z,996.93
2018-10-03T02:25:03.566Z,996.97
2018-10-03T02:26:03.611Z,996.98
2018-10-03T02:27:03.649Z,996.96
2018-10-03T02:28:03.688Z,996.98
2018-10-03T02:29:03.732Z,996.89
2018-10-03T02:30:03.769Z,996.93
2018-10-03T02:31:03.810Z,996.95
2018-10-03T02:32:03.854Z,996.95
2018-10-03T02:33:03.892Z,997.03
2018-10-03T02:34:03.941Z,997.06
2018-10-03T02:35:03.974Z,997.07
2018-10-03T02:36:04.016Z,997.08
2018-10-03T02:37:04.054Z,997.03
2018-10-03T02:38:04.096Z,997.02
2018-10-03T02:39:04.136Z,997.09
2018-10-03T02:40:04.176Z,997.10
2018-10-03T02:41:04.216Z,997.07
2018-10-03T02:42:04.269Z,997.01
2018-10-03T02:43:04.298Z,997.05
2018-10-03T02:44:04.339Z,997.03
2018-10-03T02:45:04.378Z,997.08
2018-10-03T02:46:04.423Z,997.08
2018-10-03T02:47:04.462Z,997.10
2018-10-03T02:48:04.509Z,997.11
2018-10-03T02:49:04.543Z,997.12
2018-10-03T02:50:04.588Z,997.17
2018-10-03T02:51:04.625Z,997.12
2018-10-03T02:52:04.665Z,997.16
2018-10-03T02:53:04.705Z,997.19
2018-10-03T02:54:04.748Z,997.19
2018-10-03T02:55:04.787Z,997.22
2018-10-03T02:56:04.827Z,997.22
2018-10-03T02:57:04.866Z,997.22
2018-10-03T02:58:04.946Z,997.19
2018-10-03T02:59:04.950Z,997.18
2018-10-03T03:00:04.988Z,997.25
2018-10-03T03:01:05.028Z,997.24
2018-10-03T03:02:05.068Z,997.27
2018-10-03T03:03:05.108Z,997.28
2018-10-03T03:04:05.151Z,997.28
2018-10-03T03:05:05.187Z,997.29
2018-10-03T03:06:05.230Z,997.31
2018-10-03T03:07:05.270Z,997.30
2018-10-03T03:08:05.312Z,997.27
2018-10-03T03:09:05.498Z,997.27
2018-10-03T03:10:05.400Z,997.30
2018-10-03T03:11:05.434Z,997.30
2018-10-03T03:12:05.473Z,997.30
2018-10-03T03:13:05.512Z,997.27
2018-10-03T03:14:05.553Z,997.26
2018-10-03T03:15:05.595Z,997.35
2018-10-03T03:16:05.633Z,997.31
2018-10-03T03:17:05.675Z,997.35
2018-10-03T03:18:05.716Z,997.34
2018-10-03T03:19:05.758Z,997.38
2018-10-03T03:20:05.806Z,997.40
2018-10-03T03:21:05.837Z,997.41
2018-10-03T03:22:05.876Z,997.36
2018-10-03T03:23:05.918Z,997.35
2018-10-03T03:24:05.959Z,997.37
2018-10-03T03:25:05.997Z,997.31
2018-10-03T03:26:06.059Z,997.29
2018-10-03T03:27:06.079Z,997.25
2018-10-03T03:28:06.121Z,997.26
2018-10-03T03:29:06.167Z,997.28
2018-10-03T03:30:06.200Z,997.26
2018-10-03T03:31:06.240Z,997.30
2018-10-03T03:32:06.281Z,997.27
2018-10-03T03:33:06.320Z,997.28
2018-10-03T03:34:06.360Z,997.26
2018-10-03T03:35:06.402Z,997.25
2018-10-03T03:36:06.504Z,997.26
2018-10-03T03:37:06.485Z,997.24
2018-10-03T03:38:06.522Z,997.28
2018-10-03T03:39:06.562Z,997.27
2018-10-03T03:40:06.606Z,997.24
2018-10-03T03:41:06.647Z,997.26
2018-10-03T03:42:06.686Z,997.31
2018-10-03T03:43:06.735Z,997.31
2018-10-03T03:44:06.765Z,997.31
2018-10-03T03:45:06.810Z,997.35
2018-10-03T03:46:06.853Z,997.33
2018-10-03T03:47:06.887Z,997.39
2018-10-03T03:48:06.929Z,997.36
2018-10-03T03:49:06.966Z,997.37
2018-10-03T03:50:07.007Z,997.36
2018-10-03T03:51:07.049Z,997.37
2018-10-03T03:52:07.097Z,997.42
2018-10-03T03:53:07.129Z,997.38
2018-10-03T03:54:07.228Z,997.40
2018-10-03T03:55:07.310Z,997.37
2018-10-03T03:56:07.281Z,997.38
2018-10-03T03:57:07.296Z,997.40
2018-10-03T03:58:07.330Z,997.42
2018-10-03T03:59:07.372Z,997.46
2018-10-03T04:00:07.411Z,997.50
2018-10-03T04:01:07.454Z,997.57
2018-10-03T04:02:07.593Z,997.57
2018-10-03T04:03:07.534Z,997.50
2018-10-03T04:04:07.573Z,997.48
2018-10-03T04:05:07.614Z,997.46
2018-10-03T04:06:07.653Z,997.44
2018-10-03T04:07:07.694Z,997.46
2018-10-03T04:08:07.735Z,997.49
2018-10-03T04:09:07.777Z,997.49
2018-10-03T04:10:07.814Z,997.53
2018-10-03T04:11:07.854Z,997.48
2018-10-03T04:12:07.895Z,997.48
2018-10-03T04:13:07.944Z,997.46
2018-10-03T04:14:07.980Z,997.46
2018-10-03T04:15:08.021Z,997.50
2018-10-03T04:16:08.059Z,997.48
2018-10-03T04:17:08.099Z,997.44
2018-10-03T04:18:08.139Z,997.47
2018-10-03T04:19:08.178Z,997.46
2018-10-03T04:20:08.220Z,997.44
2018-10-03T04:21:08.258Z,997.42
2018-10-03T04:22:08.304Z,997.42
2018-10-03T04:23:08.339Z,997.40
2018-10-03T04:24:08.383Z,997.41
2018-10-03T04:25:08.431Z,997.39
2018-10-03T04:26:08.472Z,997.42
2018-10-03T04:27:08.549Z,997.42
2018-10-03T04:28:08.552Z,997.45
2018-10-03T04:29:08.579Z,997.48
2018-10-03T04:30:08.622Z,997.52
2018-10-03T04:31:08.663Z,997.50
2018-10-03T04:32:08.702Z,997.56
2018-10-03T04:33:08.746Z,997.53
2018-10-03T04:34:08.784Z,997.52
2018-10-03T04:35:08.831Z,997.57
2018-10-03T04:36:08.864Z,997.59
2018-10-03T04:37:08.904Z,997.65
2018-10-03T04:38:08.952Z,997.68
2018-10-03T04:39:08.985Z,997.64
2018-10-03T04:40:09.027Z,997.68
2018-10-03T04:41:09.065Z,997.71
2018-10-03T04:42:09.153Z,997.69
2018-10-03T04:43:09.146Z,997.71
2018-10-03T04:44:09.191Z,997.68
2018-10-03T04:45:09.232Z,997.70
2018-10-03T04:46:09.268Z,997.76
2018-10-03T04:47:09.308Z,997.75
2018-10-03T04:48:09.349Z,997.72
2018-10-03T04:49:09.442Z,997.81
2018-10-03T04:50:09.430Z,997.77
2018-10-03T04:51:09.476Z,997.77
2018-10-03T04:52:09.644Z,997.78
2018-10-03T04:53:09.556Z,997.82
2018-10-03T04:54:09.592Z,997.81
2018-10-03T04:55:09.630Z,997.78
2018-10-03T04:56:09.671Z,997.82
2018-10-03T04:57:09.709Z,997.84
2018-10-03T04:58:09.749Z,997.79
2018-10-03T04:59:09.791Z,997.77
2018-10-03T05:00:09.841Z,997.78
2018-10-03T05:01:09.874Z,997.82
2018-10-03T05:02:09.915Z,997.84
2018-10-03T05:03:09.952Z,997.86
2018-10-03T05:04:09.996Z,997.88
2018-10-03T05:05:10.034Z,997.89
2018-10-03T05:06:10.076Z,997.92
2018-10-03T05:07:10.214Z,997.89
2018-10-03T05:08:10.232Z,997.94
2018-10-03T05:09:10.195Z,997.98
2018-10-03T05:10:10.237Z,997.95
2018-10-03T05:11:10.286Z,997.90
2018-10-03T05:12:10.322Z,997.95
2018-10-03T05:13:10.357Z,997.99
2018-10-03T05:14:10.401Z,997.96
2018-10-03T05:15:10.438Z,997.98
2018-10-03T05:16:10.478Z,997.99
2018-10-03T05:17:10.521Z,998.02
2018-10-03T05:18:10.560Z,997.99
2018-10-03T05:19:10.617Z,997.99
2018-10-03T05:20:10.645Z,998.01
2018-10-03T05:21:10.685Z,998.01
2018-10-03T05:22:10.724Z,998.04
2018-10-03T05:23:10.762Z,998.03
2018-10-03T05:24:10.804Z,998.10
2018-10-03T05:25:10.842Z,998.12
2018-10-03T05:26:10.881Z,998.16
2018-10-03T05:27:10.924Z,998.11
2018-10-03T05:28:10.964Z,998.17
2018-10-03T05:29:11.003Z,998.16
2018-10-03T05:30:11.054Z,998.15
2018-10-03T05:31:11.083Z,998.17
2018-10-03T05:32:11.123Z,998.19
2018-10-03T05:33:11.212Z,998.16
2018-10-03T05:34:11.204Z,998.19
2018-10-03T05:35:11.246Z,998.23
2018-10-03T05:36:11.284Z,998.20
2018-10-03T05:37:11.324Z,998.20
2018-10-03T05:38:11.365Z,998.23
2018-10-03T05:39:11.407Z,998.25
2018-10-03T05:40:11.451Z,998.22
2018-10-03T05:41:11.487Z,998.33
2018-10-03T05:42:11.528Z,998.36
2018-10-03T05:43:11.569Z,998.41
2018-10-03T05:44:11.607Z,998.44
2018-10-03T05:45:11.653Z,998.47
2018-10-03T05:46:11.690Z,998.45
2018-10-03T05:47:11.730Z,998.49
2018-10-03T05:48:11.824Z,998.49
2018-10-03T05:49:11.811Z,998.45
2018-10-03T05:50:11.851Z,998.48
2018-10-03T05:51:11.898Z,998.43
2018-10-03T05:52:11.936Z,998.47
2018-10-03T05:53:11.972Z,998.48
2018-10-03T05:54:12.013Z,998.53
2018-10-03T05:55:12.062Z,998.57
2018-10-03T05:56:12.094Z,998.57
2018-10-03T05:57:12.133Z,998.57
2018-10-03T05:58:12.173Z,998.56
2018-10-03T05:59:12.214Z,998.57
2018-10-03T06:00:12.256Z,998.61
2018-10-03T06:01:12.294Z,998.58
2018-10-03T06:02:12.335Z,998.61
2018-10-03T06:03:12.378Z,998.60
2018-10-03T06:04:12.423Z,998.54
2018-10-03T06:05:12.458Z,998.53
2018-10-03T06:06:12.501Z,998.58
2018-10-03T06:07:12.538Z,998.59
2018-10-03T06:08:12.579Z,998.60
2018-10-03T06:09:12.618Z,998.63
2018-10-03T06:10:12.659Z,998.70
2018-10-03T06:11:12.700Z,998.72
2018-10-03T06:12:12.864Z,998.72
2018-10-03T06:13:12.784Z,998.66
2018-10-03T06:14:12.824Z,998.68
2018-10-03T06:15:12.863Z,998.69
2018-10-03T06:16:12.905Z,998.71
2018-10-03T06:17:12.943Z,998.72
2018-10-03T06:18:12.984Z,998.76
2018-10-03T06:19:13.025Z,998.77
2018-10-03T06:20:13.065Z,998.77
2018-10-03T06:21:13.106Z,998.75
2018-10-03T06:22:13.147Z,998.83
2018-10-03T06:23:13.188Z,998.82
2018-10-03T06:24:13.228Z,998.85
2018-10-03T06:25:13.267Z,998.85
2018-10-03T06:26:13.446Z,998.83
2018-10-03T06:27:13.357Z,998.88
2018-10-03T06:28:13.402Z,998.86
2018-10-03T06:29:13.430Z,998.89
2018-10-03T06:30:13.477Z,998.94
2018-10-03T06:31:13.524Z,998.91
2018-10-03T06:32:13.558Z,998.94
2018-10-03T06:33:13.593Z,999.00
2018-10-03T06:34:13.636Z,999.01
2018-10-03T06:35:13.680Z,999.07
2018-10-03T06:36:13.721Z,999.14
2018-10-03T06:37:13.756Z,999.08
2018-10-03T06:38:13.836Z,999.12
2018-10-03T06:39:13.843Z,999.12
2018-10-03T06:40:13.995Z,999.14
2018-10-03T06:41:13.931Z,999.19
2018-10-03T06:42:13.964Z,999.18
2018-10-03T06:43:14.003Z,999.17
2018-10-03T06:44:14.043Z,999.18
2018-10-03T06:45:14.084Z,999.25
2018-10-03T06:46:14.124Z,999.26
2018-10-03T06:47:14.167Z,999.27
2018-10-03T06:48:14.208Z,999.27
2018-10-03T06:49:14.247Z,999.34
2018-10-03T06:50:14.289Z,999.31
2018-10-03T06:51:14.330Z,999.34
2018-10-03T06:52:14.374Z,999.36
2018-10-03T06:53:14.411Z,999.37
2018-10-03T06:54:14.451Z,999.34
2018-10-03T06:55:14.493Z,999.35
2018-10-03T06:56:14.534Z,999.40
2018-10-03T06:57:14.583Z,999.40
2018-10-03T06:58:14.628Z,999.42
2018-10-03T06:59:14.704Z,999.38
2018-10-03T07:00:14.699Z,999.38
2018-10-03T07:01:14.739Z,999.44
2018-10-03T07:02:14.787Z,999.50
2018-10-03T07:03:14.823Z,999.49
2018-10-03T07:04:14.866Z,999.57
2018-10-03T07:05:14.904Z,999.54
2018-10-03T07:06:14.946Z,999.63
2018-10-03T07:07:14.987Z,999.62
2018-10-03T07:08:15.027Z,999.60
2018-10-03T07:09:15.068Z,999.58
2018-10-03T07:10:15.117Z,999.66
2018-10-03T07:11:15.150Z,999.67
2018-10-03T07:12:15.194Z,999.70
2018-10-03T07:13:15.316Z,999.72
2018-10-03T07:14:15.277Z,999.78
2018-10-03T07:15:15.318Z,999.78
2018-10-03T07:16:15.410Z,999.79
2018-10-03T07:17:15.399Z,999.74
2018-10-03T07:18:15.445Z,999.79
2018-10-03T07:19:15.484Z,999.85
2018-10-03T07:20:15.555Z,999.84
2018-10-03T07:21:15.563Z,999.84
2018-10-03T07:22:15.606Z,999.88
2018-10-03T07:23:15.646Z,999.90
2018-10-03T07:24:15.688Z,999.88
2018-10-03T07:25:15.737Z,999.95
2018-10-03T07:26:15.903Z,999.94
2018-10-03T07:27:15.855Z,999.88
2018-10-03T07:28:15.855Z,999.89
2018-10-03T07:29:15.906Z,999.94
2018-10-03T07:30:15.947Z,999.93
2018-10-03T07:31:15.985Z,999.94
2018-10-03T07:32:16.026Z,999.98
2018-10-03T07:33:16.061Z,999.97
2018-10-03T07:34:16.104Z,999.95
2018-10-03T07:35:16.146Z,1000.01
2018-10-03T07:36:16.188Z,1000.00
2018-10-03T07:37:16.279Z,1000.02
2018-10-03T07:38:16.272Z,1000.07
2018-10-03T07:39:16.314Z,1000.03
2018-10-03T07:40:16.354Z,1000.04
2018-10-03T07:41:16.406Z,1000.06
2018-10-03T07:42:16.437Z,1000.10
2018-10-03T07:43:16.493Z,1000.05
2018-10-03T07:44:16.521Z,1000.06
2018-10-03T07:45:16.563Z,1000.08
2018-10-03T07:46:16.606Z,1000.08
2018-10-03T07:47:16.648Z,1000.06
2018-10-03T07:48:16.693Z,1000.06
2018-10-03T07:49:16.732Z,1000.09
2018-10-03T07:50:16.773Z,1000.07
2018-10-03T07:51:16.817Z,1000.12
2018-10-03T07:52:16.864Z,1000.17
2018-10-03T07:53:16.901Z,1000.18
2018-10-03T07:54:16.941Z,1000.24
2018-10-03T07:55:16.989Z,1000.20
2018-10-03T07:56:17.090Z,1000.18
2018-10-03T07:57:17.091Z,1000.20
2018-10-03T07:58:17.112Z,1000.20
2018-10-03T07:59:17.154Z,1000.18
2018-10-03T08:00:17.196Z,1000.18
2018-10-03T08:01:17.245Z,1000.17
2018-10-03T08:02:17.287Z,1000.21
2018-10-03T08:03:17.327Z,1000.23
2018-10-03T08:04:17.367Z,1000.27
2018-10-03T08:05:17.408Z,1000.27
2018-10-03T08:06:17.454Z,1000.32
2018-10-03T08:07:17.492Z,1000.30
2018-10-03T08:08:17.543Z,1000.35
2018-10-03T08:09:17.577Z,1000.37
2018-10-03T08:10:17.757Z,1000.41
2018-10-03T08:11:17.673Z,1000.42
2018-10-03T08:12:17.708Z,1000.42
2018-10-03T08:13:17.778Z,1000.48
2018-10-03T08:14:17.790Z,1000.63
2018-10-03T08:15:17.835Z,1000.54
2018-10-03T08:16:17.874Z,1000.53
2018-10-03T08:17:17.941Z,1000.55
2018-10-03T08:18:17.959Z,1000.56
2018-10-03T08:19:18.003Z,1000.58
2018-10-03T08:20:18.045Z,1000.63
2018-10-03T08:21:18.087Z,1000.69
2018-10-03T08:22:18.138Z,1000.68
2018-10-03T08:23:18.171Z,1000.67
2018-10-03T08:24:18.215Z,1000.73
2018-10-03T08:25:18.258Z,1000.73
2018-10-03T08:26:18.310Z,1000.68
2018-10-03T08:27:18.342Z,1000.69
2018-10-03T08:28:18.386Z,1000.71
2018-10-03T08:29:18.427Z,1000.71
2018-10-03T08:30:18.471Z,1000.63
2018-10-03T08:31:18.513Z,1000.76
2018-10-03T08:32:18.600Z,1000.75
2018-10-03T08:33:18.619Z,1000.75
2018-10-03T08:34:18.642Z,1000.76
2018-10-03T08:35:18.682Z,1000.69
2018-10-03T08:36:18.725Z,1000.72
2018-10-03T08:37:18.766Z,1000.69
2018-10-03T08:38:18.809Z,1000.65
2018-10-03T08:39:18.854Z,1000.65
2018-10-03T08:40:18.899Z,1000.66
2018-10-03T08:41:18.943Z,1000.66
2018-10-03T08:42:18.982Z,1000.60
2018-10-03T08:43:19.028Z,1000.60
2018-10-03T08:44:19.065Z,1000.65
2018-10-03T08:45:19.107Z,1000.66
2018-10-03T08:46:19.147Z,1000.74
2018-10-03T08:47:19.193Z,1000.71
2018-10-03T08:48:19.235Z,1000.76
2018-10-03T08:49:19.272Z,1000.80
2018-10-03T08:50:19.317Z,1000.89
2018-10-03T08:51:19.358Z,1000.86
2018-10-03T08:52:19.401Z,1000.94
2018-10-03T08:53:19.452Z,1000.96
2018-10-03T08:54:19.484Z,1000.92
2018-10-03T08:55:19.536Z,1000.97
2018-10-03T08:56:19.568Z,1001.03
2018-10-03T08:57:19.609Z,1001.02
2018-10-03T08:58:19.806Z,1001.01
2018-10-03T08:59:19.700Z,1001.01
2018-10-03T09:00:19.746Z,1000.99
2018-10-03T09:01:19.780Z,1000.99
2018-10-03T09:02:19.821Z,1000.92
2018-10-03T09:03:19.865Z,1000.91
2018-10-03T09:04:19.910Z,1000.99
2018-10-03T09:05:19.948Z,1000.99
2018-10-03T09:06:19.990Z,1001.04
2018-10-03T09:07:20.032Z,1001.06
2018-10-03T09:08:20.083Z,1001.05
2018-10-03T09:09:20.118Z,1001.01
2018-10-03T09:10:20.173Z,1001.04
2018-10-03T09:11:20.205Z,1000.99
2018-10-03T09:12:20.246Z,1001.05
2018-10-03T09:13:20.286Z,1001.06
2018-10-03T09:14:20.328Z,1001.11
2018-10-03T09:15:20.371Z,1001.20
2018-10-03T09:16:20.413Z,1001.25
2018-10-03T09:17:20.453Z,1001.21
2018-10-03T09:18:20.500Z,1001.24
2018-10-03T09:19:20.540Z,1001.23
2018-10-03T09:20:20.579Z,1001.25
2018-10-03T09:21:20.715Z,1001.22
2018-10-03T09:22:20.663Z,1001.22
2018-10-03T09:23:20.708Z,1001.23
2018-10-03T09:24:20.745Z,1001.30
2018-10-03T09:25:20.791Z,1001.41
2018-10-03T09:26:20.835Z,1001.41
2018-10-03T09:27:20.873Z,1001.45
2018-10-03T09:28:20.953Z,1001.44
2018-10-03T09:29:20.957Z,1001.53
2018-10-03T09:30:21.156Z,1001.45
2018-10-03T09:31:21.044Z,1001.50
2018-10-03T09:32:21.086Z,1001.46
2018-10-03T09:33:21.129Z,1001.52
2018-10-03T09:34:21.174Z,1001.55
2018-10-03T09:35:21.218Z,1001.58
2018-10-03T09:36:21.254Z,1001.55
2018-10-03T09:37:21.295Z,1001.53
2018-10-03T09:38:21.340Z,1001.58
2018-10-03T09:39:21.397Z,1001.56
2018-10-03T09:40:21.423Z,1001.59
2018-10-03T09:41:21.487Z,1001.60
2018-10-03T09:42:21.511Z,1001.67
2018-10-03T09:43:21.555Z,1001.63
2018-10-03T09:44:21.654Z,1001.70
2018-10-03T09:45:21.634Z,1001.71
2018-10-03T09:46:21.675Z,1001.66
2018-10-03T09:47:21.725Z,1001.69
2018-10-03T09:48:21.760Z,1001.76
2018-10-03T09:49:21.803Z,1001.82
2018-10-03T09:50:22.057Z,1001.92
2018-10-03T09:51:21.891Z,1001.96
2018-10-03T09:52:21.930Z,1001.88
2018-10-03T09:53:21.972Z,1001.84
2018-10-03T09:54:22.016Z,1001.81
2018-10-03T09:55:22.056Z,1001.88
2018-10-03T09:56:22.099Z,1001.82
2018-10-03T09:57:22.149Z,1001.84
2018-10-03T09:58:22.200Z,1001.83
2018-10-03T09:59:22.230Z,1001.89
2018-10-03T10:00:22.288Z,1001.98
2018-10-03T10:01:22.310Z,1001.92
2018-10-03T10:02:22.351Z,1001.92
2018-10-03T10:03:22.394Z,1001.94
2018-10-03T10:04:22.443Z,1001.98
2018-10-03T10:05:22.484Z,1001.98
2018-10-03T10:06:22.522Z,1001.98
2018-10-03T10:07:22.565Z,1001.97
2018-10-03T10:08:22.613Z,1002.04
2018-10-03T10:09:22.646Z,1002.07
2018-10-03T10:10:22.700Z,1002.02
2018-10-03T10:11:22.856Z,1002.07
2018-10-03T10:12:22.775Z,1002.17
2018-10-03T10:13:22.814Z,1002.22
2018-10-03T10:14:22.855Z,1002.28
2018-10-03T10:15:22.902Z,1002.20
2018-10-03T10:16:22.950Z,1002.30
2018-10-03T10:17:22.990Z,1002.36
2018-10-03T10:18:23.025Z,1002.38
2018-10-03T10:19:23.066Z,1002.30
2018-10-03T10:20:23.109Z,1002.24
2018-10-03T10:21:23.149Z,1002.22
2018-10-03T10:22:23.192Z,1002.20
2018-10-03T10:23:23.234Z,1002.29
2018-10-03T10:24:23.278Z,1002.28
2018-10-03T10:25:23.319Z,1002.23
2018-10-03T10:26:23.399Z,1002.26
2018-10-03T10:27:23.406Z,1002.17
2018-10-03T10:28:23.448Z,1002.22
2018-10-03T10:29:23.486Z,1002.28
2018-10-03T10:30:23.606Z,1002.26
2018-10-03T10:31:23.580Z,1002.31
2018-10-03T10:32:23.735Z,1002.45
2018-10-03T10:33:23.665Z,1002.45
2018-10-03T10:34:23.697Z,1002.43
2018-10-03T10:35:23.786Z,1002.56
2018-10-03T10:36:23.793Z,1002.50
2018-10-03T10:37:23.826Z,1002.44
2018-10-03T10:38:23.874Z,1002.41
2018-10-03T10:39:23.910Z,1002.37
2018-10-03T10:40:24.074Z,1002.36
2018-10-03T10:41:24.105Z,1002.36
2018-10-03T10:42:24.046Z,1002.41
2018-10-03T10:43:24.106Z,1002.50
2018-10-03T10:44:24.123Z,1002.48
2018-10-03T10:45:24.165Z,1002.56
2018-10-03T10:46:24.209Z,1002.49
2018-10-03T10:47:24.250Z,1002.58
2018-10-03T10:48:24.294Z,1002.54
2018-10-03T10:49:24.336Z,1002.60
2018-10-03T10:50:24.510Z,1002.62
2018-10-03T10:51:24.424Z,1002.61
2018-10-03T10:52:24.473Z,1002.58
2018-10-03T10:53:24.507Z,1002.45
2018-10-03T10:54:24.557Z,1002.43
2018-10-03T10:55:24.592Z,1002.44
2018-10-03T10:56:24.635Z,1002.42
2018-10-03T10:57:24.677Z,1002.47
2018-10-03T10:58:24.823Z,1002.53
2018-10-03T10:59:24.765Z,1002.58
2018-10-03T11:00:24.808Z,1002.63
2018-10-03T11:01:24.856Z,1002.49
2018-10-03T11:02:24.894Z,1002.50
2018-10-03T11:03:24.937Z,1002.58
2018-10-03T11:04:24.981Z,1002.65
2018-10-03T11:05:25.033Z,1002.62
2018-10-03T11:06:25.067Z,1002.66
2018-10-03T11:07:25.107Z,1002.58
2018-10-03T11:08:25.160Z,1002.58
2018-10-03T11:09:25.194Z,1002.64
2018-10-03T11:10:25.234Z,1002.66
2018-10-03T11:11:25.283Z,1002.61
2018-10-03T11:12:25.370Z,1002.50
2018-10-03T11:13:25.361Z,1002.52
2018-10-03T11:14:25.407Z,1002.49
2018-10-03T11:15:25.475Z,1002.42
2018-10-03T11:16:25.490Z,1002.51
2018-10-03T11:17:25.535Z,1002.50
2018-10-03T11:18:25.574Z,1002.53
2018-10-03T11:19:25.616Z,1002.53
2018-10-03T11:20:25.669Z,1002.48
2018-10-03T11:21:25.701Z,1002.43
2018-10-03T11:22:25.745Z,1002.43
2018-10-03T11:23:25.881Z,1002.41
2018-10-03T11:24:26.067Z,1002.40
2018-10-03T11:25:25.870Z,1002.37
2018-10-03T11:26:25.915Z,1002.39
2018-10-03T11:27:25.964Z,1002.37
2018-10-03T11:28:26.004Z,1002.38
2018-10-03T11:29:26.041Z,1002.35
2018-10-03T11:30:26.083Z,1002.42
2018-10-03T11:31:26.135Z,1002.37
2018-10-03T11:32:26.168Z,1002.41
2018-10-03T11:33:26.213Z,1002.37
2018-10-03T11:34:26.259Z,1002.48
2018-10-03T11:35:26.298Z,1002.52
2018-10-03T11:36:26.339Z,1002.50
2018-10-03T11:37:26.378Z,1002.59
2018-10-03T11:38:26.424Z,1002.66
2018-10-03T11:39:26.474Z,1002.61
2018-10-03T11:40:26.505Z,1002.61
2018-10-03T11:41:26.550Z,1002.55
2018-10-03T11:42:26.590Z,1002.58
2018-10-03T11:43:26.631Z,1002.61
2018-10-03T11:44:26.675Z,1002.61
2018-10-03T11:45:26.719Z,1002.57
2018-10-03T11:46:26.758Z,1002.57
2018-10-03T11:47:26.801Z,1002.71
2018-10-03T11:48:26.859Z,1002.65
2018-10-03T11:49:26.892Z,1002.67
2018-10-03T11:50:26.975Z,1002.54
2018-10-03T11:51:26.972Z,1002.57
2018-10-03T11:52:27.017Z,1002.51
2018-10-03T11:53:27.059Z,1002.48
2018-10-03T11:54:27.101Z,1002.50
2018-10-03T11:55:27.159Z,1002.56
2018-10-03T11:56:27.186Z,1002.56
2018-10-03T11:57:27.239Z,1002.61
2018-10-03T11:58:27.279Z,1002.59
2018-10-03T11:59:27.367Z,1002.59
2018-10-03T12:00:27.361Z,1002.64
2018-10-03T12:01:27.447Z,1002.51
2018-10-03T12:02:27.444Z,1002.50
2018-10-03T12:03:27.655Z,1002.54
2018-10-03T12:04:27.529Z,1002.54
2018-10-03T12:05:27.572Z,1002.54
2018-10-03T12:06:27.644Z,1002.54
2018-10-03T12:07:27.663Z,1002.52
2018-10-03T12:08:27.712Z,1002.58
2018-10-03T12:09:27.747Z,1002.57
2018-10-03T12:10:27.789Z,1002.53
2018-10-03T12:11:27.826Z,1002.58
2018-10-03T12:12:27.869Z,1002.61
2018-10-03T12:13:27.933Z,1002.59
2018-10-03T12:14:27.955Z,1002.58
2018-10-03T12:15:27.996Z,1002.52
2018-10-03T12:16:28.060Z,1002.55
2018-10-03T12:17:28.082Z,1002.58
2018-10-03T12:18:28.122Z,1002.60
2018-10-03T12:19:28.169Z,1002.57
2018-10-03T12:20:28.207Z,1002.57